Log Mountain, Kentucky
Current Conditions -  °F | °C
As of 3:35 AM on Friday 19 Dec 2014 (Local Time) from K1A6 Reporting Station
Overcast Overcast  
Wind Chill: 33°   Ceiling: 5000
Heat Index: 33°   Visibility: 10mi
Dew Point: 28°   Wind: 3mph
Humidity: 81%   Direction: 40°NE
Pressure: 30.19"   Gusts: NA
Location:  36.7417°N, 83.6911°W
Report Text: K1A6 190835Z AUTO 04003KT 10SM OVC050 01/M02 A3019 RMK AO2 T00071022
Loading
Personal Weather Stations






























Interactive Weather Map New forecast layout! Learn more

10-Day Weather Forecast

Advertisements
Track Severe Weather on mobile